sensor_id;sensor_type;location;lat;lon;timestamp;pressure;altitude;pressure_sealevel;temperature;humidity
15678;BME280;7939;50.814;6.368;2022-08-30T00:01:13;100248.19;;;22.62;44.82
15678;BME280;7939;50.814;6.368;2022-08-30T00:03:44;100244.69;;;22.63;44.82
15678;BME280;7939;50.814;6.368;2022-08-30T00:06:12;100256.00;;;22.62;44.74
15678;BME280;7939;50.814;6.368;2022-08-30T00:08:40;100248.25;;;22.60;45.29
15678;BME280;7939;50.814;6.368;2022-08-30T00:11:09;100250.94;;;22.59;45.06
15678;BME280;7939;50.814;6.368;2022-08-30T00:13:36;100253.59;;;22.57;45.10
15678;BME280;7939;50.814;6.368;2022-08-30T00:16:03;100251.97;;;22.55;44.86
15678;BME280;7939;50.814;6.368;2022-08-30T00:18:31;100257.25;;;22.53;45.07
15678;BME280;7939;50.814;6.368;2022-08-30T00:21:00;100248.56;;;22.53;45.05
15678;BME280;7939;50.814;6.368;2022-08-30T00:23:27;100249.50;;;22.52;45.08
15678;BME280;7939;50.814;6.368;2022-08-30T00:25:53;100247.72;;;22.52;45.17
15678;BME280;7939;50.814;6.368;2022-08-30T00:28:20;100253.91;;;22.50;44.95
15678;BME280;7939;50.814;6.368;2022-08-30T00:30:47;100255.66;;;22.49;45.15
15678;BME280;7939;50.814;6.368;2022-08-30T00:33:13;100250.53;;;22.48;45.26
15678;BME280;7939;50.814;6.368;2022-08-30T00:35:40;100254.03;;;22.47;45.28
15678;BME280;7939;50.814;6.368;2022-08-30T00:38:10;100254.94;;;22.46;45.15
15678;BME280;7939;50.814;6.368;2022-08-30T00:40:39;100254.03;;;22.47;45.14
15678;BME280;7939;50.814;6.368;2022-08-30T00:43:11;100242.00;;;22.44;45.45
15678;BME280;7939;50.814;6.368;2022-08-30T00:45:39;100243.72;;;22.44;45.10
15678;BME280;7939;50.814;6.368;2022-08-30T00:48:06;100243.81;;;22.42;45.47
15678;BME280;7939;50.814;6.368;2022-08-30T00:50:36;100245.56;;;22.42;45.48
15678;BME280;7939;50.814;6.368;2022-08-30T00:53:08;100247.41;;;22.40;45.50
15678;BME280;7939;50.814;6.368;2022-08-30T00:55:39;100250.94;;;22.37;45.49
15678;BME280;7939;50.814;6.368;2022-08-30T00:58:09;100253.56;;;22.37;45.64
15678;BME280;7939;50.814;6.368;2022-08-30T01:00:38;100258.84;;;22.35;45.59
15678;BME280;7939;50.814;6.368;2022-08-30T01:03:05;100257.16;;;22.34;45.56
15678;BME280;7939;50.814;6.368;2022-08-30T01:05:33;100258.06;;;22.33;45.97
15678;BME280;7939;50.814;6.368;2022-08-30T01:08:01;100251.16;;;22.32;45.84
15678;BME280;7939;50.814;6.368;2022-08-30T01:10:27;100258.97;;;22.32;45.92
15678;BME280;7939;50.814;6.368;2022-08-30T01:12:55;100252.97;;;22.30;45.97
15678;BME280;7939;50.814;6.368;2022-08-30T01:15:22;100247.81;;;22.29;45.90
15678;BME280;7939;50.814;6.368;2022-08-30T01:17:50;100259.16;;;22.28;46.00
15678;BME280;7939;50.814;6.368;2022-08-30T01:20:19;100258.38;;;22.26;45.94
15678;BME280;7939;50.814;6.368;2022-08-30T01:23:01;100269.69;;;22.25;46.14
15678;BME280;7939;50.814;6.368;2022-08-30T01:25:29;100267.13;;;22.23;46.08
15678;BME280;7939;50.814;6.368;2022-08-30T01:27:59;100262.00;;;22.22;45.94
15678;BME280;7939;50.814;6.368;2022-08-30T01:30:27;100259.41;;;22.22;46.17
15678;BME280;7939;50.814;6.368;2022-08-30T01:32:57;100260.31;;;22.21;45.89
15678;BME280;7939;50.814;6.368;2022-08-30T01:35:25;100256.88;;;22.20;46.26
15678;BME280;7939;50.814;6.368;2022-08-30T01:37:52;100250.84;;;22.18;46.31
15678;BME280;7939;50.814;6.368;2022-08-30T01:40:20;100255.22;;;22.18;46.43
15678;BME280;7939;50.814;6.368;2022-08-30T01:42:47;100259.66;;;22.16;46.39
15678;BME280;7939;50.814;6.368;2022-08-30T01:45:14;100260.56;;;22.15;46.17
15678;BME280;7939;50.814;6.368;2022-08-30T01:47:41;100257.13;;;22.14;46.58
15678;BME280;7939;50.814;6.368;2022-08-30T01:50:09;100258.91;;;22.12;46.31
15678;BME280;7939;50.814;6.368;2022-08-30T01:52:36;100251.09;;;22.12;46.35
15678;BME280;7939;50.814;6.368;2022-08-30T01:55:04;100258.13;;;22.10;46.51
15678;BME280;7939;50.814;6.368;2022-08-30T01:57:32;100257.28;;;22.10;46.60
15678;BME280;7939;50.814;6.368;2022-08-30T01:59:59;100257.31;;;22.08;46.44
15678;BME280;7939;50.814;6.368;2022-08-30T02:02:27;100259.94;;;22.08;46.68
15678;BME280;7939;50.814;6.368;2022-08-30T02:04:56;100262.59;;;22.06;46.69
15678;BME280;7939;50.814;6.368;2022-08-30T02:07:23;100259.19;;;22.04;46.59
15678;BME280;7939;50.814;6.368;2022-08-30T02:09:51;100260.09;;;22.03;46.70
15678;BME280;7939;50.814;6.368;2022-08-30T02:12:18;100252.38;;;22.02;46.81
15678;BME280;7939;50.814;6.368;2022-08-30T02:14:47;100253.28;;;22.01;46.59
15678;BME280;7939;50.814;6.368;2022-08-30T02:17:14;100257.63;;;22.00;46.94
15678;BME280;7939;50.814;6.368;2022-08-30T02:19:41;100256.75;;;22.00;46.88
15678;BME280;7939;50.814;6.368;2022-08-30T02:22:09;100255.06;;;21.99;46.85
15678;BME280;7939;50.814;6.368;2022-08-30T02:24:36;100251.69;;;21.97;47.03
15678;BME280;7939;50.814;6.368;2022-08-30T02:27:03;100252.59;;;21.96;47.00
15678;BME280;7939;50.814;6.368;2022-08-30T02:29:30;100253.50;;;21.95;47.05
15678;BME280;7939;50.814;6.368;2022-08-30T02:31:58;100245.72;;;21.95;47.07
15678;BME280;7939;50.814;6.368;2022-08-30T02:34:25;100237.91;;;21.95;47.00
15678;BME280;7939;50.814;6.368;2022-08-30T02:36:51;100231.00;;;21.94;47.09
15678;BME280;7939;50.814;6.368;2022-08-30T02:39:18;100230.13;;;21.93;46.91
15678;BME280;7939;50.814;6.368;2022-08-30T02:41:45;100233.66;;;21.92;47.09
15678;BME280;7939;50.814;6.368;2022-08-30T02:44:11;100231.03;;;21.92;46.99
15678;BME280;7939;50.814;6.368;2022-08-30T02:46:38;100225.84;;;21.92;47.02
15678;BME280;7939;50.814;6.368;2022-08-30T02:49:06;100226.75;;;21.91;47.04
15678;BME280;7939;50.814;6.368;2022-08-30T02:51:34;100228.50;;;21.91;47.03
15678;BME280;7939;50.814;6.368;2022-08-30T02:54:00;100224.22;;;21.90;46.77
15678;BME280;7939;50.814;6.368;2022-08-30T02:56:27;100226.88;;;21.88;47.12
15678;BME280;7939;50.814;6.368;2022-08-30T02:58:54;100222.56;;;21.87;47.42
15678;BME280;7939;50.814;6.368;2022-08-30T03:01:20;100230.44;;;21.86;47.14
15678;BME280;7939;50.814;6.368;2022-08-30T03:03:47;100225.31;;;21.84;47.24
15678;BME280;7939;50.814;6.368;2022-08-30T03:06:15;100219.25;;;21.84;47.26
15678;BME280;7939;50.814;6.368;2022-08-30T03:08:42;100227.06;;;21.84;47.10
15678;BME280;7939;50.814;6.368;2022-08-30T03:11:09;100225.38;;;21.83;47.13
15678;BME280;7939;50.814;6.368;2022-08-30T03:13:38;100231.50;;;21.81;46.86
15678;BME280;7939;50.814;6.368;2022-08-30T03:16:04;100227.16;;;21.80;47.13
15678;BME280;7939;50.814;6.368;2022-08-30T03:18:32;100229.75;;;21.80;46.91
15678;BME280;7939;50.814;6.368;2022-08-30T03:20:58;100233.28;;;21.79;47.11
15678;BME280;7939;50.814;6.368;2022-08-30T03:23:26;100225.47;;;21.79;46.85
15678;BME280;7939;50.814;6.368;2022-08-30T03:25:53;100235.03;;;21.79;47.16
15678;BME280;7939;50.814;6.368;2022-08-30T03:28:20;100237.69;;;21.77;47.00
15678;BME280;7939;50.814;6.368;2022-08-30T03:30:46;100232.56;;;21.76;47.09
15678;BME280;7939;50.814;6.368;2022-08-30T03:33:13;100226.53;;;21.75;47.29
15678;BME280;7939;50.814;6.368;2022-08-30T03:35:40;100227.41;;;21.74;47.24
15678;BME280;7939;50.814;6.368;2022-08-30T03:38:06;100226.56;;;21.74;47.01
15678;BME280;7939;50.814;6.368;2022-08-30T03:40:34;100233.50;;;21.73;47.37
15678;BME280;7939;50.814;6.368;2022-08-30T03:43:01;100224.03;;;21.72;47.22
15678;BME280;7939;50.814;6.368;2022-08-30T03:45:27;100219.72;;;21.71;47.21
15678;BME280;7939;50.814;6.368;2022-08-30T03:47:54;100212.78;;;21.72;47.33
15678;BME280;7939;50.814;6.368;2022-08-30T03:50:21;100214.59;;;21.70;47.45
15678;BME280;7939;50.814;6.368;2022-08-30T03:52:47;100222.41;;;21.70;47.39
15678;BME280;7939;50.814;6.368;2022-08-30T03:55:14;100225.00;;;21.70;47.65
15678;BME280;7939;50.814;6.368;2022-08-30T03:57:42;100222.44;;;21.68;47.36
15678;BME280;7939;50.814;6.368;2022-08-30T04:00:10;100226.78;;;21.68;47.30
15678;BME280;7939;50.814;6.368;2022-08-30T04:02:37;100231.16;;;21.67;47.25
15678;BME280;7939;50.814;6.368;2022-08-30T04:05:04;100235.50;;;21.67;47.33
15678;BME280;7939;50.814;6.368;2022-08-30T04:07:31;100230.38;;;21.65;47.63
15678;BME280;7939;50.814;6.368;2022-08-30T04:09:58;100239.94;;;21.65;47.71
15678;BME280;7939;50.814;6.368;2022-08-30T04:12:25;100241.69;;;21.64;47.66
15678;BME280;7939;50.814;6.368;2022-08-30T04:14:53;100229.59;;;21.63;47.80
15678;BME280;7939;50.814;6.368;2022-08-30T04:17:20;100232.19;;;21.63;47.63
15678;BME280;7939;50.814;6.368;2022-08-30T04:19:46;100240.00;;;21.63;47.55
15678;BME280;7939;50.814;6.368;2022-08-30T04:22:13;100238.28;;;21.62;47.57
15678;BME280;7939;50.814;6.368;2022-08-30T04:24:39;100240.03;;;21.62;47.58
15678;BME280;7939;50.814;6.368;2022-08-30T04:27:07;100234.78;;;21.63;47.77
15678;BME280;7939;50.814;6.368;2022-08-30T04:29:34;100233.97;;;21.61;47.58
15678;BME280;7939;50.814;6.368;2022-08-30T04:32:02;100236.59;;;21.61;47.83
15678;BME280;7939;50.814;6.368;2022-08-30T04:34:29;100240.09;;;21.60;47.50
15678;BME280;7939;50.814;6.368;2022-08-30T04:36:55;100241.84;;;21.60;47.73
15678;BME280;7939;50.814;6.368;2022-08-30T04:39:22;100241.91;;;21.58;48.32
15678;BME280;7939;50.814;6.368;2022-08-30T04:41:48;100247.13;;;21.58;48.11
15678;BME280;7939;50.814;6.368;2022-08-30T04:44:15;100248.03;;;21.57;48.12
15678;BME280;7939;50.814;6.368;2022-08-30T04:46:42;100240.22;;;21.57;47.98
15678;BME280;7939;50.814;6.368;2022-08-30T04:49:09;100244.59;;;21.57;48.00
15678;BME280;7939;50.814;6.368;2022-08-30T04:51:36;100247.22;;;21.55;48.06
15678;BME280;7939;50.814;6.368;2022-08-30T04:54:04;100254.19;;;21.54;48.02
15678;BME280;7939;50.814;6.368;2022-08-30T04:56:30;100256.78;;;21.54;48.35
15678;BME280;7939;50.814;6.368;2022-08-30T04:58:57;100251.56;;;21.54;48.19
15678;BME280;7939;50.814;6.368;2022-08-30T05:01:26;100253.34;;;21.54;47.92
15678;BME280;7939;50.814;6.368;2022-08-30T05:03:54;100250.78;;;21.52;48.07
15678;BME280;7939;50.814;6.368;2022-08-30T05:06:24;100258.59;;;21.52;48.10
15678;BME280;7939;50.814;6.368;2022-08-30T05:08:51;100253.41;;;21.52;48.01
15678;BME280;7939;50.814;6.368;2022-08-30T05:11:18;100264.66;;;21.53;48.03
15678;BME280;7939;50.814;6.368;2022-08-30T05:13:46;100264.72;;;21.51;48.15
15678;BME280;7939;50.814;6.368;2022-08-30T05:16:14;100269.97;;;21.50;48.07
15678;BME280;7939;50.814;6.368;2022-08-30T05:18:42;100261.28;;;21.49;48.35
15678;BME280;7939;50.814;6.368;2022-08-30T05:21:11;100259.59;;;21.48;48.20
15678;BME280;7939;50.814;6.368;2022-08-30T05:23:40;100266.56;;;21.48;48.23
15678;BME280;7939;50.814;6.368;2022-08-30T05:26:09;100270.91;;;21.47;48.24
15678;BME280;7939;50.814;6.368;2022-08-30T05:28:36;100270.91;;;21.47;48.11
15678;BME280;7939;50.814;6.368;2022-08-30T05:31:11;100270.91;;;21.47;48.30
15678;BME280;7939;50.814;6.368;2022-08-30T05:33:38;100268.31;;;21.47;48.35
15678;BME280;7939;50.814;6.368;2022-08-30T05:36:05;100273.59;;;21.46;48.27
15678;BME280;7939;50.814;6.368;2022-08-30T05:38:32;100264.09;;;21.45;48.36
15678;BME280;7939;50.814;6.368;2022-08-30T05:41:00;100269.28;;;21.45;48.46
15678;BME280;7939;50.814;6.368;2022-08-30T05:43:26;100270.13;;;21.45;48.35
15678;BME280;7939;50.814;6.368;2022-08-30T05:45:57;100271.03;;;21.44;48.33
15678;BME280;7939;50.814;6.368;2022-08-30T05:48:24;100265.88;;;21.43;48.46
15678;BME280;7939;50.814;6.368;2022-08-30T05:51:00;100273.69;;;21.43;48.47
15678;BME280;7939;50.814;6.368;2022-08-30T05:53:27;100268.47;;;21.43;48.27
15678;BME280;7939;50.814;6.368;2022-08-30T05:55:53;100268.47;;;21.43;48.36
15678;BME280;7939;50.814;6.368;2022-08-30T05:58:22;100276.28;;;21.43;48.28
15678;BME280;7939;50.814;6.368;2022-08-30T06:00:49;100280.63;;;21.42;48.31
15678;BME280;7939;50.814;6.368;2022-08-30T06:03:15;100281.47;;;21.43;48.27
15678;BME280;7939;50.814;6.368;2022-08-30T06:05:42;100284.09;;;21.43;48.38
15678;BME280;7939;50.814;6.368;2022-08-30T06:08:08;100282.38;;;21.42;48.47
15678;BME280;7939;50.814;6.368;2022-08-30T06:10:35;100291.03;;;21.42;48.42
15678;BME280;7939;50.814;6.368;2022-08-30T06:13:01;100278.03;;;21.42;48.28
15678;BME280;7939;50.814;6.368;2022-08-30T06:15:29;100274.53;;;21.43;48.40
15678;BME280;7939;50.814;6.368;2022-08-30T06:17:56;100272.81;;;21.44;48.28
15678;BME280;7939;50.814;6.368;2022-08-30T06:20:22;100277.13;;;21.43;48.36
15678;BME280;7939;50.814;6.368;2022-08-30T06:22:49;100277.09;;;21.45;48.32
15678;BME280;7939;50.814;6.368;2022-08-30T06:25:16;100284.06;;;21.44;48.44
15678;BME280;7939;50.814;6.368;2022-08-30T06:27:42;100283.97;;;21.46;48.32
15678;BME280;7939;50.814;6.368;2022-08-30T06:30:10;100283.06;;;21.47;48.27
15678;BME280;7939;50.814;6.368;2022-08-30T06:32:38;100280.47;;;21.47;48.25
15678;BME280;7939;50.814;6.368;2022-08-30T06:35:06;100275.28;;;21.47;48.24
15678;BME280;7939;50.814;6.368;2022-08-30T06:37:33;100279.56;;;21.48;48.39
15678;BME280;7939;50.814;6.368;2022-08-30T06:40:01;100273.59;;;21.46;47.97
15678;BME280;7939;50.814;6.368;2022-08-30T06:42:30;100264.88;;;21.47;47.98
15678;BME280;7939;50.814;6.368;2022-08-30T06:44:58;100273.53;;;21.47;48.16
15678;BME280;7939;50.814;6.368;2022-08-30T06:47:24;100275.22;;;21.48;47.92
15678;BME280;7939;50.814;6.368;2022-08-30T06:49:52;100273.53;;;21.47;47.85
15678;BME280;7939;50.814;6.368;2022-08-30T06:52:19;100279.56;;;21.48;47.99
15678;BME280;7939;50.814;6.368;2022-08-30T06:54:45;100285.69;;;21.47;47.76
15678;BME280;7939;50.814;6.368;2022-08-30T06:57:12;100283.00;;;21.48;47.88
15678;BME280;7939;50.814;6.368;2022-08-30T06:59:38;100282.16;;;21.48;48.02
15678;BME280;7939;50.814;6.368;2022-08-30T07:02:06;100286.47;;;21.49;47.89
15678;BME280;7939;50.814;6.368;2022-08-30T07:04:33;100291.72;;;21.47;47.95
15678;BME280;7939;50.814;6.368;2022-08-30T07:07:01;100294.25;;;21.49;47.88
15678;BME280;7939;50.814;6.368;2022-08-30T07:09:27;100289.13;;;21.47;47.78
15678;BME280;7939;50.814;6.368;2022-08-30T07:11:54;100279.50;;;21.49;47.76
15678;BME280;7939;50.814;6.368;2022-08-30T07:14:21;100284.69;;;21.49;47.58
15678;BME280;7939;50.814;6.368;2022-08-30T07:16:47;100285.59;;;21.50;47.76
15678;BME280;7939;50.814;6.368;2022-08-30T07:19:14;100293.31;;;21.51;47.81
15678;BME280;7939;50.814;6.368;2022-08-30T07:21:41;100290.72;;;21.51;47.66
15678;BME280;7939;50.814;6.368;2022-08-30T07:24:11;100290.72;;;21.51;47.94
15678;BME280;7939;50.814;6.368;2022-08-30T07:26:41;100290.66;;;21.53;47.78
15678;BME280;7939;50.814;6.368;2022-08-30T07:29:08;100299.31;;;21.53;47.98
15678;BME280;7939;50.814;6.368;2022-08-30T07:31:36;100295.78;;;21.54;48.02
15678;BME280;7939;50.814;6.368;2022-08-30T07:34:04;100298.28;;;21.58;47.95
15678;BME280;7939;50.814;6.368;2022-08-30T07:36:32;100295.69;;;21.58;47.99
15678;BME280;7939;50.814;6.368;2022-08-30T07:38:59;100287.81;;;21.59;48.05
15678;BME280;7939;50.814;6.368;2022-08-30T07:41:29;100288.59;;;21.61;48.03
15678;BME280;7939;50.814;6.368;2022-08-30T07:43:56;100294.63;;;21.63;47.90
15678;BME280;7939;50.814;6.368;2022-08-30T07:46:24;100288.59;;;21.61;48.03
15678;BME280;7939;50.814;6.368;2022-08-30T07:48:51;100290.38;;;21.61;48.39
15678;BME280;7939;50.814;6.368;2022-08-30T07:51:20;100284.16;;;21.65;48.08
15678;BME280;7939;50.814;6.368;2022-08-30T07:53:47;100290.97;;;21.67;48.03
15678;BME280;7939;50.814;6.368;2022-08-30T07:56:14;100295.28;;;21.68;48.02
15678;BME280;7939;50.814;6.368;2022-08-30T07:58:42;100299.59;;;21.69;48.22
15678;BME280;7939;50.814;6.368;2022-08-30T08:01:11;100299.41;;;21.74;48.04
15678;BME280;7939;50.814;6.368;2022-08-30T08:03:39;100305.44;;;21.74;48.40
15678;BME280;7939;50.814;6.368;2022-08-30T08:06:08;100308.94;;;21.75;48.21
15678;BME280;7939;50.814;6.368;2022-08-30T08:08:37;100303.59;;;21.78;48.34
15678;BME280;7939;50.814;6.368;2022-08-30T08:11:05;100305.13;;;21.84;48.09
15678;BME280;7939;50.814;6.368;2022-08-30T08:13:33;100308.50;;;21.86;48.26
15678;BME280;7939;50.814;6.368;2022-08-30T08:16:01;100306.72;;;21.88;48.16
15678;BME280;7939;50.814;6.368;2022-08-30T08:18:28;100304.81;;;21.91;48.14
15678;BME280;7939;50.814;6.368;2022-08-30T08:20:56;100307.25;;;21.96;48.15
15678;BME280;7939;50.814;6.368;2022-08-30T08:23:23;100305.50;;;21.96;47.92
15678;BME280;7939;50.814;6.368;2022-08-30T08:25:49;100305.50;;;21.96;48.26
15678;BME280;7939;50.814;6.368;2022-08-30T08:28:16;100299.38;;;21.97;47.95
15678;BME280;7939;50.814;6.368;2022-08-30T08:30:43;100309.69;;;22.00;47.90
15678;BME280;7939;50.814;6.368;2022-08-30T08:33:11;100307.03;;;22.02;48.13
15678;BME280;7939;50.814;6.368;2022-08-30T08:35:38;100307.78;;;22.04;48.02
15678;BME280;7939;50.814;6.368;2022-08-30T08:38:05;100309.44;;;22.06;47.79
15678;BME280;7939;50.814;6.368;2022-08-30T08:40:35;100311.25;;;22.04;47.91
15678;BME280;7939;50.814;6.368;2022-08-30T08:43:07;100303.38;;;22.06;47.94
15678;BME280;7939;50.814;6.368;2022-08-30T08:45:45;100302.38;;;22.10;47.71
15678;BME280;7939;50.814;6.368;2022-08-30T08:48:25;100299.69;;;22.13;47.84
15678;BME280;7939;50.814;6.368;2022-08-30T08:50:54;100303.06;;;22.15;47.84
15678;BME280;7939;50.814;6.368;2022-08-30T08:53:39;100297.06;;;22.13;47.76
15678;BME280;7939;50.814;6.368;2022-08-30T08:56:10;100305.59;;;22.17;47.91
15678;BME280;7939;50.814;6.368;2022-08-30T08:58:41;100295.97;;;22.19;47.85
15678;BME280;7939;50.814;6.368;2022-08-30T09:01:09;100300.31;;;22.18;47.64
15678;BME280;7939;50.814;6.368;2022-08-30T09:03:38;100295.19;;;22.17;47.89
15678;BME280;7939;50.814;6.368;2022-08-30T09:06:18;100298.53;;;22.20;47.69
15678;BME280;7939;50.814;6.368;2022-08-30T09:08:46;100297.47;;;22.24;47.51
15678;BME280;7939;50.814;6.368;2022-08-30T09:11:17;100303.41;;;22.28;47.61
15678;BME280;7939;50.814;6.368;2022-08-30T09:13:46;100301.59;;;22.30;47.56
15678;BME280;7939;50.814;6.368;2022-08-30T09:16:50;100294.59;;;22.32;47.48
15678;BME280;7939;50.814;6.368;2022-08-30T09:19:32;100298.75;;;22.36;47.65
15678;BME280;7939;50.814;6.368;2022-08-30T09:22:01;100296.03;;;22.39;47.60
15678;BME280;7939;50.814;6.368;2022-08-30T09:24:36;100299.31;;;22.44;47.79
15678;BME280;7939;50.814;6.368;2022-08-30T09:27:13;100294.03;;;22.46;47.63
15678;BME280;7939;50.814;6.368;2022-08-30T09:29:49;100297.34;;;22.49;47.35
15678;BME280;7939;50.814;6.368;2022-08-30T09:32:22;100294.78;;;22.48;47.46
15678;BME280;7939;50.814;6.368;2022-08-30T09:34:49;100293.78;;;22.52;47.39
15678;BME280;7939;50.814;6.368;2022-08-30T09:37:24;100296.97;;;22.58;47.33
15678;BME280;7939;50.814;6.368;2022-08-30T09:39:53;100295.06;;;22.62;47.15
15678;BME280;7939;50.814;6.368;2022-08-30T09:42:22;100299.25;;;22.66;47.23
15678;BME280;7939;50.814;6.368;2022-08-30T09:44:50;100290.53;;;22.67;47.08
15678;BME280;7939;50.814;6.368;2022-08-30T09:47:20;100292.09;;;22.71;47.19
15678;BME280;7939;50.814;6.368;2022-08-30T09:50:01;100285.91;;;22.74;46.72
15678;BME280;7939;50.814;6.368;2022-08-30T09:52:35;100292.63;;;22.79;46.83
15678;BME280;7939;50.814;6.368;2022-08-30T09:57:58;100284.53;;;22.85;47.03
15678;BME280;7939;50.814;6.368;2022-08-30T10:00:32;100287.09;;;22.87;46.64
15678;BME280;7939;50.814;6.368;2022-08-30T10:03:22;100280.94;;;22.90;46.83
15678;BME280;7939;50.814;6.368;2022-08-30T10:05:57;100282.63;;;22.91;46.63
15678;BME280;7939;50.814;6.368;2022-08-30T10:08:36;100286.84;;;22.93;46.71
15678;BME280;7939;50.814;6.368;2022-08-30T10:11:07;100285.81;;;22.97;46.97
15678;BME280;7939;50.814;6.368;2022-08-30T10:13:49;100286.56;;;22.99;46.64
15678;BME280;7939;50.814;6.368;2022-08-30T10:16:31;100278.72;;;23.01;46.68
15678;BME280;7939;50.814;6.368;2022-08-30T10:19:13;100269.97;;;23.02;46.38
15678;BME280;7939;50.814;6.368;2022-08-30T10:21:47;100277.47;;;23.09;46.05
15678;BME280;7939;50.814;6.368;2022-08-30T10:24:17;100271.25;;;23.12;46.37
15678;BME280;7939;50.814;6.368;2022-08-30T10:26:49;100268.38;;;23.18;46.00
15678;BME280;7939;50.814;6.368;2022-08-30T10:29:21;100272.56;;;23.22;46.26
15678;BME280;7939;50.814;6.368;2022-08-30T10:31:52;100272.34;;;23.27;46.24
15678;BME280;7939;50.814;6.368;2022-08-30T10:34:25;100265.16;;;23.32;46.00
15678;BME280;7939;50.814;6.368;2022-08-30T10:36:55;100258.88;;;23.36;45.56
15678;BME280;7939;50.814;6.368;2022-08-30T10:39:28;100263.97;;;23.39;45.88
15678;BME280;7939;50.814;6.368;2022-08-30T10:42:00;100263.75;;;23.43;45.11
15678;BME280;7939;50.814;6.368;2022-08-30T10:44:30;100258.34;;;23.48;44.59
15678;BME280;7939;50.814;6.368;2022-08-30T10:47:07;100257.22;;;23.54;45.06
15678;BME280;7939;50.814;6.368;2022-08-30T10:49:43;100257.00;;;23.58;45.14
15678;BME280;7939;50.814;6.368;2022-08-30T10:52:22;100267.31;;;23.61;45.03
15678;BME280;7939;50.814;6.368;2022-08-30T10:54:53;100258.53;;;23.64;44.77
15678;BME280;7939;50.814;6.368;2022-08-30T10:57:21;100253.16;;;23.67;44.97
15678;BME280;7939;50.814;6.368;2022-08-30T10:59:50;100252.09;;;23.71;44.04
15678;BME280;7939;50.814;6.368;2022-08-30T11:02:52;100240.44;;;23.78;44.40
15678;BME280;7939;50.814;6.368;2022-08-30T11:05:39;100241.09;;;23.83;43.84
15678;BME280;7939;50.814;6.368;2022-08-30T11:08:29;100241.63;;;23.90;44.02
15678;BME280;7939;50.814;6.368;2022-08-30T11:11:05;100239.72;;;23.93;43.77
15678;BME280;7939;50.814;6.368;2022-08-30T11:13:38;100233.25;;;24.01;43.34
15678;BME280;7939;50.814;6.368;2022-08-30T11:16:08;100240.88;;;24.05;42.54
15678;BME280;7939;50.814;6.368;2022-08-30T11:18:42;100243.19;;;24.11;42.80
15678;BME280;7939;50.814;6.368;2022-08-30T11:21:26;100240.59;;;24.11;43.22
15678;BME280;7939;50.814;6.368;2022-08-30T11:24:00;100232.63;;;24.14;42.80
15678;BME280;7939;50.814;6.368;2022-08-30T11:26:50;100234.09;;;24.20;42.57
15678;BME280;7939;50.814;6.368;2022-08-30T11:29:30;100231.31;;;24.23;42.30
15678;BME280;7939;50.814;6.368;2022-08-30T11:31:59;100238.00;;;24.29;42.33
15678;BME280;7939;50.814;6.368;2022-08-30T11:34:56;100233.34;;;24.35;41.91
15678;BME280;7939;50.814;6.368;2022-08-30T11:37:37;100229.81;;;24.36;41.98
15678;BME280;7939;50.814;6.368;2022-08-30T11:42:53;100225.75;;;24.48;41.78
15678;BME280;7939;50.814;6.368;2022-08-30T11:48:42;100223.53;;;24.58;40.88
15678;BME280;7939;50.814;6.368;2022-08-30T11:51:27;100214.50;;;24.63;41.07
15678;BME280;7939;50.814;6.368;2022-08-30T11:54:03;100216.97;;;24.66;40.65
15678;BME280;7939;50.814;6.368;2022-08-30T11:56:46;100210.69;;;24.70;40.86
15678;BME280;7939;50.814;6.368;2022-08-30T11:59:22;100214.88;;;24.73;40.89
15678;BME280;7939;50.814;6.368;2022-08-30T12:01:51;100212.03;;;24.78;40.16
15678;BME280;7939;50.814;6.368;2022-08-30T12:04:34;100209.13;;;24.84;40.41
15678;BME280;7939;50.814;6.368;2022-08-30T12:07:04;100210.88;;;24.83;40.43
15678;BME280;7939;50.814;6.368;2022-08-30T12:10:04;100212.41;;;24.87;40.14
15678;BME280;7939;50.814;6.368;2022-08-30T12:12:51;100206.41;;;24.85;39.89
15678;BME280;7939;50.814;6.368;2022-08-30T12:15:49;100211.41;;;24.90;40.12
15678;BME280;7939;50.814;6.368;2022-08-30T12:18:20;100212.06;;;24.93;40.50
15678;BME280;7939;50.814;6.368;2022-08-30T12:20:56;100210.16;;;24.97;39.48
15678;BME280;7939;50.814;6.368;2022-08-30T12:23:32;100202.97;;;25.00;39.42
15678;BME280;7939;50.814;6.368;2022-08-30T12:26:16;100208.06;;;25.03;39.58
15678;BME280;7939;50.814;6.368;2022-08-30T12:28:44;100209.06;;;25.01;39.81
15678;BME280;7939;50.814;6.368;2022-08-30T12:31:16;100209.78;;;25.05;39.81
15678;BME280;7939;50.814;6.368;2022-08-30T12:33:47;100193.22;;;25.04;40.20
15678;BME280;7939;50.814;6.368;2022-08-30T12:36:28;100196.75;;;25.03;39.71
15678;BME280;7939;50.814;6.368;2022-08-30T12:39:07;100195.63;;;25.09;39.22
15678;BME280;7939;50.814;6.368;2022-08-30T12:41:34;100196.28;;;25.12;39.06
15678;BME280;7939;50.814;6.368;2022-08-30T12:44:01;100193.59;;;25.14;38.98
15678;BME280;7939;50.814;6.368;2022-08-30T12:46:28;100184.75;;;25.16;39.33
15678;BME280;7939;50.814;6.368;2022-08-30T12:48:57;100185.50;;;25.18;39.04
15678;BME280;7939;50.814;6.368;2022-08-30T12:51:36;100178.34;;;25.22;38.93
15678;BME280;7939;50.814;6.368;2022-08-30T12:54:07;100176.38;;;25.25;39.21
15678;BME280;7939;50.814;6.368;2022-08-30T12:56:45;100177.22;;;25.26;39.33
15678;BME280;7939;50.814;6.368;2022-08-30T13:02:20;100182.47;;;25.26;39.78
15678;BME280;7939;50.814;6.368;2022-08-30T13:04:50;100172.84;;;25.26;39.57
15678;BME280;7939;50.814;6.368;2022-08-30T13:07:32;100168.47;;;25.27;39.66
15678;BME280;7939;50.814;6.368;2022-08-30T13:10:03;100171.09;;;25.27;39.72
15678;BME280;7939;50.814;6.368;2022-08-30T13:12:30;100157.06;;;25.28;39.69
15678;BME280;7939;50.814;6.368;2022-08-30T13:15:15;100172.59;;;25.31;39.72
15678;BME280;7939;50.814;6.368;2022-08-30T13:17:42;100172.59;;;25.31;39.77
15678;BME280;7939;50.814;6.368;2022-08-30T13:20:23;100161.97;;;25.34;39.17
15678;BME280;7939;50.814;6.368;2022-08-30T13:23:06;100166.28;;;25.35;39.02
15678;BME280;7939;50.814;6.368;2022-08-30T13:25:33;100153.84;;;25.39;39.05
15678;BME280;7939;50.814;6.368;2022-08-30T13:28:01;100146.78;;;25.41;39.18